sensor_id;sensor_type;location;lat;lon;timestamp;temperature;humidity
3298;DHT22;1661;53.572;10.174;2024-03-06T00:02:26;7.40;80.00
3298;DHT22;1661;53.572;10.174;2024-03-06T00:04:52;7.40;80.00
3298;DHT22;1661;53.572;10.174;2024-03-06T00:07:20;7.40;79.80
3298;DHT22;1661;53.572;10.174;2024-03-06T00:09:48;7.40;79.70
3298;DHT22;1661;53.572;10.174;2024-03-06T00:12:15;7.40;79.80
3298;DHT22;1661;53.572;10.174;2024-03-06T00:14:41;7.30;79.80
3298;DHT22;1661;53.572;10.174;2024-03-06T00:17:08;7.30;79.80
3298;DHT22;1661;53.572;10.174;2024-03-06T00:19:35;7.30;79.80
3298;DHT22;1661;53.572;10.174;2024-03-06T00:22:02;7.20;79.80
3298;DHT22;1661;53.572;10.174;2024-03-06T00:24:29;7.20;80.00
3298;DHT22;1661;53.572;10.174;2024-03-06T00:26:57;7.20;80.20
3298;DHT22;1661;53.572;10.174;2024-03-06T00:29:24;7.20;80.30
3298;DHT22;1661;53.572;10.174;2024-03-06T00:31:50;7.20;80.20
3298;DHT22;1661;53.572;10.174;2024-03-06T00:34:17;7.20;80.10
3298;DHT22;1661;53.572;10.174;2024-03-06T00:36:44;7.20;80.10
3298;DHT22;1661;53.572;10.174;2024-03-06T00:39:12;7.20;80.40
3298;DHT22;1661;53.572;10.174;2024-03-06T00:41:40;7.20;80.40
3298;DHT22;1661;53.572;10.174;2024-03-06T00:44:08;7.20;80.50
3298;DHT22;1661;53.572;10.174;2024-03-06T00:46:35;7.10;80.40
3298;DHT22;1661;53.572;10.174;2024-03-06T00:49:02;7.20;80.50
3298;DHT22;1661;53.572;10.174;2024-03-06T00:51:29;7.20;80.60
3298;DHT22;1661;53.572;10.174;2024-03-06T00:53:57;7.20;80.60
3298;DHT22;1661;53.572;10.174;2024-03-06T00:56:23;7.20;80.40
3298;DHT22;1661;53.572;10.174;2024-03-06T00:58:50;7.20;80.50
3298;DHT22;1661;53.572;10.174;2024-03-06T01:01:19;7.20;80.30
3298;DHT22;1661;53.572;10.174;2024-03-06T01:03:45;7.20;80.10
3298;DHT22;1661;53.572;10.174;2024-03-06T01:06:12;7.20;80.20
3298;DHT22;1661;53.572;10.174;2024-03-06T01:08:39;7.20;80.40
3298;DHT22;1661;53.572;10.174;2024-03-06T01:11:06;7.20;80.50
3298;DHT22;1661;53.572;10.174;2024-03-06T01:13:33;7.20;80.40
3298;DHT22;1661;53.572;10.174;2024-03-06T01:16:01;7.20;80.20
3298;DHT22;1661;53.572;10.174;2024-03-06T01:18:29;7.20;80.20
3298;DHT22;1661;53.572;10.174;2024-03-06T01:20:56;7.20;80.20
3298;DHT22;1661;53.572;10.174;2024-03-06T01:23:22;7.30;80.10
3298;DHT22;1661;53.572;10.174;2024-03-06T01:25:49;7.20;80.20
3298;DHT22;1661;53.572;10.174;2024-03-06T01:28:16;7.30;80.20
3298;DHT22;1661;53.572;10.174;2024-03-06T01:30:43;7.20;80.20
3298;DHT22;1661;53.572;10.174;2024-03-06T01:33:10;7.20;80.10
3298;DHT22;1661;53.572;10.174;2024-03-06T01:35:38;7.20;80.00
3298;DHT22;1661;53.572;10.174;2024-03-06T01:38:05;7.20;80.00
3298;DHT22;1661;53.572;10.174;2024-03-06T01:40:33;7.20;80.10
3298;DHT22;1661;53.572;10.174;2024-03-06T01:42:59;7.20;80.00
3298;DHT22;1661;53.572;10.174;2024-03-06T01:45:27;7.20;80.00
3298;DHT22;1661;53.572;10.174;2024-03-06T01:47:54;7.20;80.10
3298;DHT22;1661;53.572;10.174;2024-03-06T01:50:20;7.20;80.10
3298;DHT22;1661;53.572;10.174;2024-03-06T01:52:51;7.20;80.20
3298;DHT22;1661;53.572;10.174;2024-03-06T01:55:18;7.10;80.00
3298;DHT22;1661;53.572;10.174;2024-03-06T01:57:45;7.10;80.10
3298;DHT22;1661;53.572;10.174;2024-03-06T02:00:12;7.10;80.10
3298;DHT22;1661;53.572;10.174;2024-03-06T02:02:42;7.10;80.30
3298;DHT22;1661;53.572;10.174;2024-03-06T02:05:09;7.10;80.20
3298;DHT22;1661;53.572;10.174;2024-03-06T02:07:37;7.10;80.10
3298;DHT22;1661;53.572;10.174;2024-03-06T02:10:07;7.00;80.20
3298;DHT22;1661;53.572;10.174;2024-03-06T02:12:35;7.10;80.30
3298;DHT22;1661;53.572;10.174;2024-03-06T02:15:02;7.10;80.20
3298;DHT22;1661;53.572;10.174;2024-03-06T02:17:29;7.10;80.30
3298;DHT22;1661;53.572;10.174;2024-03-06T02:19:56;7.10;80.30
3298;DHT22;1661;53.572;10.174;2024-03-06T02:22:25;7.10;80.40
3298;DHT22;1661;53.572;10.174;2024-03-06T02:24:52;7.10;80.40
3298;DHT22;1661;53.572;10.174;2024-03-06T02:27:19;7.10;80.50
3298;DHT22;1661;53.572;10.174;2024-03-06T02:29:45;7.20;80.40
3298;DHT22;1661;53.572;10.174;2024-03-06T02:32:12;7.20;80.50
3298;DHT22;1661;53.572;10.174;2024-03-06T02:34:40;7.20;80.40
3298;DHT22;1661;53.572;10.174;2024-03-06T02:37:07;7.20;80.50
3298;DHT22;1661;53.572;10.174;2024-03-06T02:39:35;7.20;80.30
3298;DHT22;1661;53.572;10.174;2024-03-06T02:42:02;7.10;80.20
3298;DHT22;1661;53.572;10.174;2024-03-06T02:44:29;7.10;80.20
3298;DHT22;1661;53.572;10.174;2024-03-06T02:46:56;7.10;79.80
3298;DHT22;1661;53.572;10.174;2024-03-06T02:49:23;7.10;79.70
3298;DHT22;1661;53.572;10.174;2024-03-06T02:51:50;7.10;79.70
3298;DHT22;1661;53.572;10.174;2024-03-06T02:54:17;7.10;79.60
3298;DHT22;1661;53.572;10.174;2024-03-06T02:56:46;7.00;79.70
3298;DHT22;1661;53.572;10.174;2024-03-06T02:59:12;7.00;79.80
3298;DHT22;1661;53.572;10.174;2024-03-06T03:01:39;7.10;79.80
3298;DHT22;1661;53.572;10.174;2024-03-06T03:04:06;7.00;80.00
3298;DHT22;1661;53.572;10.174;2024-03-06T03:06:33;7.10;80.00
3298;DHT22;1661;53.572;10.174;2024-03-06T03:09:00;7.10;79.80
3298;DHT22;1661;53.572;10.174;2024-03-06T03:11:27;7.10;79.80
3298;DHT22;1661;53.572;10.174;2024-03-06T03:13:55;7.00;79.50
3298;DHT22;1661;53.572;10.174;2024-03-06T03:16:22;7.00;79.50
3298;DHT22;1661;53.572;10.174;2024-03-06T03:18:49;7.00;79.60
3298;DHT22;1661;53.572;10.174;2024-03-06T03:21:16;7.00;79.50
3298;DHT22;1661;53.572;10.174;2024-03-06T03:23:42;6.90;79.70
3298;DHT22;1661;53.572;10.174;2024-03-06T03:26:10;7.00;79.80
3298;DHT22;1661;53.572;10.174;2024-03-06T03:28:38;7.00;79.80
3298;DHT22;1661;53.572;10.174;2024-03-06T03:31:07;7.00;79.80
3298;DHT22;1661;53.572;10.174;2024-03-06T03:33:35;6.90;79.60
3298;DHT22;1661;53.572;10.174;2024-03-06T03:36:04;6.90;79.40
3298;DHT22;1661;53.572;10.174;2024-03-06T03:38:31;6.90;79.30
3298;DHT22;1661;53.572;10.174;2024-03-06T03:40:58;6.80;79.30
3298;DHT22;1661;53.572;10.174;2024-03-06T03:43:25;6.80;79.20
3298;DHT22;1661;53.572;10.174;2024-03-06T03:45:51;6.70;79.20
3298;DHT22;1661;53.572;10.174;2024-03-06T03:48:20;6.70;79.10
3298;DHT22;1661;53.572;10.174;2024-03-06T03:50:46;6.70;79.30
3298;DHT22;1661;53.572;10.174;2024-03-06T03:53:13;6.60;79.40
3298;DHT22;1661;53.572;10.174;2024-03-06T03:55:41;6.60;79.30
3298;DHT22;1661;53.572;10.174;2024-03-06T03:58:08;6.50;79.60
3298;DHT22;1661;53.572;10.174;2024-03-06T04:00:35;6.50;80.00
3298;DHT22;1661;53.572;10.174;2024-03-06T04:03:03;6.40;79.90
3298;DHT22;1661;53.572;10.174;2024-03-06T04:05:32;6.40;79.80
3298;DHT22;1661;53.572;10.174;2024-03-06T04:07:58;6.30;79.90
3298;DHT22;1661;53.572;10.174;2024-03-06T04:10:25;6.30;80.10
3298;DHT22;1661;53.572;10.174;2024-03-06T04:12:52;6.30;80.20
3298;DHT22;1661;53.572;10.174;2024-03-06T04:15:20;6.20;80.20
3298;DHT22;1661;53.572;10.174;2024-03-06T04:17:47;6.20;80.20
3298;DHT22;1661;53.572;10.174;2024-03-06T04:20:14;6.20;80.00
3298;DHT22;1661;53.572;10.174;2024-03-06T04:22:43;6.10;80.10
3298;DHT22;1661;53.572;10.174;2024-03-06T04:25:12;6.10;80.00
3298;DHT22;1661;53.572;10.174;2024-03-06T04:27:38;6.10;80.00
3298;DHT22;1661;53.572;10.174;2024-03-06T04:30:06;6.00;80.30
3298;DHT22;1661;53.572;10.174;2024-03-06T04:32:33;6.00;80.20
3298;DHT22;1661;53.572;10.174;2024-03-06T04:35:00;6.00;80.10
3298;DHT22;1661;53.572;10.174;2024-03-06T04:37:27;6.00;80.20
3298;DHT22;1661;53.572;10.174;2024-03-06T04:39:56;5.90;80.30
3298;DHT22;1661;53.572;10.174;2024-03-06T04:42:23;5.90;80.10
3298;DHT22;1661;53.572;10.174;2024-03-06T04:44:50;5.80;80.10
3298;DHT22;1661;53.572;10.174;2024-03-06T04:47:16;5.80;80.20
3298;DHT22;1661;53.572;10.174;2024-03-06T04:49:44;5.80;80.20
3298;DHT22;1661;53.572;10.174;2024-03-06T04:52:12;5.70;80.00
3298;DHT22;1661;53.572;10.174;2024-03-06T04:54:38;5.70;80.30
3298;DHT22;1661;53.572;10.174;2024-03-06T04:57:06;5.60;80.30
3298;DHT22;1661;53.572;10.174;2024-03-06T04:59:33;5.60;80.30
3298;DHT22;1661;53.572;10.174;2024-03-06T05:02:00;5.60;80.60
3298;DHT22;1661;53.572;10.174;2024-03-06T05:04:28;5.60;80.60
3298;DHT22;1661;53.572;10.174;2024-03-06T05:06:55;5.50;80.50
3298;DHT22;1661;53.572;10.174;2024-03-06T05:09:22;5.50;80.50
3298;DHT22;1661;53.572;10.174;2024-03-06T05:11:49;5.40;80.50
3298;DHT22;1661;53.572;10.174;2024-03-06T05:14:17;5.40;80.50
3298;DHT22;1661;53.572;10.174;2024-03-06T05:16:44;5.40;80.70
3298;DHT22;1661;53.572;10.174;2024-03-06T05:19:11;5.40;80.70
3298;DHT22;1661;53.572;10.174;2024-03-06T05:21:38;5.40;80.70
3298;DHT22;1661;53.572;10.174;2024-03-06T05:24:05;5.30;80.70
3298;DHT22;1661;53.572;10.174;2024-03-06T05:26:31;5.30;80.70
3298;DHT22;1661;53.572;10.174;2024-03-06T05:29:00;5.20;80.70
3298;DHT22;1661;53.572;10.174;2024-03-06T05:31:28;5.20;80.70
3298;DHT22;1661;53.572;10.174;2024-03-06T05:33:55;5.20;80.90
3298;DHT22;1661;53.572;10.174;2024-03-06T05:36:22;5.20;80.80
3298;DHT22;1661;53.572;10.174;2024-03-06T05:38:49;5.10;80.80
3298;DHT22;1661;53.572;10.174;2024-03-06T05:41:15;5.10;80.80
3298;DHT22;1661;53.572;10.174;2024-03-06T05:43:43;5.10;81.00
3298;DHT22;1661;53.572;10.174;2024-03-06T05:46:10;5.10;81.00
3298;DHT22;1661;53.572;10.174;2024-03-06T05:48:38;5.00;81.10
3298;DHT22;1661;53.572;10.174;2024-03-06T05:51:05;5.00;81.20
3298;DHT22;1661;53.572;10.174;2024-03-06T05:53:36;5.00;81.30
3298;DHT22;1661;53.572;10.174;2024-03-06T05:56:04;4.90;81.10
3298;DHT22;1661;53.572;10.174;2024-03-06T05:58:32;4.90;81.10
3298;DHT22;1661;53.572;10.174;2024-03-06T06:01:00;4.90;81.50
3298;DHT22;1661;53.572;10.174;2024-03-06T06:03:26;4.90;81.50
3298;DHT22;1661;53.572;10.174;2024-03-06T06:05:55;4.80;81.40
3298;DHT22;1661;53.572;10.174;2024-03-06T06:08:22;4.80;81.40
3298;DHT22;1661;53.572;10.174;2024-03-06T06:10:49;4.80;81.50
3298;DHT22;1661;53.572;10.174;2024-03-06T06:13:18;4.80;81.60
3298;DHT22;1661;53.572;10.174;2024-03-06T06:15:45;4.80;81.70
3298;DHT22;1661;53.572;10.174;2024-03-06T06:18:11;4.80;81.70
3298;DHT22;1661;53.572;10.174;2024-03-06T06:20:40;4.70;81.80
3298;DHT22;1661;53.572;10.174;2024-03-06T06:23:08;4.70;81.90
3298;DHT22;1661;53.572;10.174;2024-03-06T06:25:35;4.70;82.00
3298;DHT22;1661;53.572;10.174;2024-03-06T06:28:02;4.70;82.00
3298;DHT22;1661;53.572;10.174;2024-03-06T06:30:29;4.70;82.00
3298;DHT22;1661;53.572;10.174;2024-03-06T06:32:56;4.70;81.90
3298;DHT22;1661;53.572;10.174;2024-03-06T06:35:22;4.70;81.90
3298;DHT22;1661;53.572;10.174;2024-03-06T06:37:50;4.70;81.90
3298;DHT22;1661;53.572;10.174;2024-03-06T06:40:18;4.80;82.10
3298;DHT22;1661;53.572;10.174;2024-03-06T06:42:47;4.80;82.20
3298;DHT22;1661;53.572;10.174;2024-03-06T06:45:15;4.80;82.10
3298;DHT22;1661;53.572;10.174;2024-03-06T06:47:42;4.90;82.20
3298;DHT22;1661;53.572;10.174;2024-03-06T06:50:09;4.90;82.30
3298;DHT22;1661;53.572;10.174;2024-03-06T06:52:37;4.90;82.30
3298;DHT22;1661;53.572;10.174;2024-03-06T06:55:04;5.00;82.20
3298;DHT22;1661;53.572;10.174;2024-03-06T06:57:33;5.10;82.20
3298;DHT22;1661;53.572;10.174;2024-03-06T07:00:01;5.10;82.10
3298;DHT22;1661;53.572;10.174;2024-03-06T07:02:31;5.20;81.90
3298;DHT22;1661;53.572;10.174;2024-03-06T07:04:58;5.20;82.00
3298;DHT22;1661;53.572;10.174;2024-03-06T07:07:25;5.30;81.80
3298;DHT22;1661;53.572;10.174;2024-03-06T07:09:52;5.40;81.70
3298;DHT22;1661;53.572;10.174;2024-03-06T07:12:18;5.40;81.50
3298;DHT22;1661;53.572;10.174;2024-03-06T07:14:46;5.50;81.40
3298;DHT22;1661;53.572;10.174;2024-03-06T07:17:13;5.50;81.20
3298;DHT22;1661;53.572;10.174;2024-03-06T07:19:40;5.60;81.20
3298;DHT22;1661;53.572;10.174;2024-03-06T07:22:07;5.70;81.20
3298;DHT22;1661;53.572;10.174;2024-03-06T07:24:34;5.80;81.00
3298;DHT22;1661;53.572;10.174;2024-03-06T07:27:02;5.80;81.00
3298;DHT22;1661;53.572;10.174;2024-03-06T07:29:29;5.90;80.80
3298;DHT22;1661;53.572;10.174;2024-03-06T07:31:57;6.00;80.60
3298;DHT22;1661;53.572;10.174;2024-03-06T07:34:24;6.10;80.40
3298;DHT22;1661;53.572;10.174;2024-03-06T07:36:51;6.20;80.10
3298;DHT22;1661;53.572;10.174;2024-03-06T07:39:19;6.30;79.70
3298;DHT22;1661;53.572;10.174;2024-03-06T07:41:46;6.30;79.10
3298;DHT22;1661;53.572;10.174;2024-03-06T07:44:13;6.30;78.80
3298;DHT22;1661;53.572;10.174;2024-03-06T07:46:40;6.40;78.80
3298;DHT22;1661;53.572;10.174;2024-03-06T07:49:08;6.50;78.70
3298;DHT22;1661;53.572;10.174;2024-03-06T07:51:35;6.60;78.70
3298;DHT22;1661;53.572;10.174;2024-03-06T07:54:02;6.70;78.50
3298;DHT22;1661;53.572;10.174;2024-03-06T07:56:30;6.80;78.00
3298;DHT22;1661;53.572;10.174;2024-03-06T07:58:56;6.90;77.80
3298;DHT22;1661;53.572;10.174;2024-03-06T08:01:24;7.00;77.40
3298;DHT22;1661;53.572;10.174;2024-03-06T08:03:51;7.00;76.20
3298;DHT22;1661;53.572;10.174;2024-03-06T08:06:20;7.00;76.10
3298;DHT22;1661;53.572;10.174;2024-03-06T08:08:46;7.00;76.10
3298;DHT22;1661;53.572;10.174;2024-03-06T08:11:13;7.00;76.00
3298;DHT22;1661;53.572;10.174;2024-03-06T08:13:40;7.10;76.10
3298;DHT22;1661;53.572;10.174;2024-03-06T08:16:08;7.20;75.80
3298;DHT22;1661;53.572;10.174;2024-03-06T08:18:35;7.40;75.60
3298;DHT22;1661;53.572;10.174;2024-03-06T08:21:03;7.60;75.50
3298;DHT22;1661;53.572;10.174;2024-03-06T08:23:32;7.80;74.80
3298;DHT22;1661;53.572;10.174;2024-03-06T08:25:59;8.00;74.30
3298;DHT22;1661;53.572;10.174;2024-03-06T08:28:26;8.20;73.00
3298;DHT22;1661;53.572;10.174;2024-03-06T08:30:52;8.30;71.90
3298;DHT22;1661;53.572;10.174;2024-03-06T08:33:19;8.30;70.70
3298;DHT22;1661;53.572;10.174;2024-03-06T08:35:48;8.20;71.00
3298;DHT22;1661;53.572;10.174;2024-03-06T08:38:14;8.30;71.30
3298;DHT22;1661;53.572;10.174;2024-03-06T08:40:44;8.50;71.20
3298;DHT22;1661;53.572;10.174;2024-03-06T08:43:11;8.60;70.50
3298;DHT22;1661;53.572;10.174;2024-03-06T08:45:40;8.90;70.60
3298;DHT22;1661;53.572;10.174;2024-03-06T08:48:07;9.00;68.90
3298;DHT22;1661;53.572;10.174;2024-03-06T08:50:34;9.00;68.60
3298;DHT22;1661;53.572;10.174;2024-03-06T08:53:01;9.00;67.70
3298;DHT22;1661;53.572;10.174;2024-03-06T08:55:28;9.00;68.20
3298;DHT22;1661;53.572;10.174;2024-03-06T08:57:56;9.10;68.40
3298;DHT22;1661;53.572;10.174;2024-03-06T09:00:24;9.30;68.30
3298;DHT22;1661;53.572;10.174;2024-03-06T09:02:52;9.40;67.30
3298;DHT22;1661;53.572;10.174;2024-03-06T09:05:19;9.50;66.60
3298;DHT22;1661;53.572;10.174;2024-03-06T09:07:47;9.50;66.00
3298;DHT22;1661;53.572;10.174;2024-03-06T09:10:13;9.50;65.80
3298;DHT22;1661;53.572;10.174;2024-03-06T09:12:40;9.50;65.10
3298;DHT22;1661;53.572;10.174;2024-03-06T09:15:08;9.60;65.10
3298;DHT22;1661;53.572;10.174;2024-03-06T09:17:37;9.80;65.10
3298;DHT22;1661;53.572;10.174;2024-03-06T09:20:04;10.00;64.30
3298;DHT22;1661;53.572;10.174;2024-03-06T09:22:35;10.20;63.60
3298;DHT22;1661;53.572;10.174;2024-03-06T09:25:03;10.50;63.90
3298;DHT22;1661;53.572;10.174;2024-03-06T09:27:30;10.80;63.60
3298;DHT22;1661;53.572;10.174;2024-03-06T09:29:57;11.10;62.70
3298;DHT22;1661;53.572;10.174;2024-03-06T09:32:25;11.40;61.20
3298;DHT22;1661;53.572;10.174;2024-03-06T09:34:52;11.60;60.70
3298;DHT22;1661;53.572;10.174;2024-03-06T09:37:19;12.00;60.90
3298;DHT22;1661;53.572;10.174;2024-03-06T09:39:46;12.30;60.20
3298;DHT22;1661;53.572;10.174;2024-03-06T09:42:13;12.50;59.10
3298;DHT22;1661;53.572;10.174;2024-03-06T09:44:40;12.80;57.20
3298;DHT22;1661;53.572;10.174;2024-03-06T09:47:12;12.70;54.90
3298;DHT22;1661;53.572;10.174;2024-03-06T09:49:41;12.60;55.50
3298;DHT22;1661;53.572;10.174;2024-03-06T09:52:08;12.60;55.80
3298;DHT22;1661;53.572;10.174;2024-03-06T09:54:37;12.50;56.60
3298;DHT22;1661;53.572;10.174;2024-03-06T09:57:05;12.50;56.00
3298;DHT22;1661;53.572;10.174;2024-03-06T09:59:32;12.50;56.20
3298;DHT22;1661;53.572;10.174;2024-03-06T10:02:00;12.50;56.00
3298;DHT22;1661;53.572;10.174;2024-03-06T10:04:29;12.40;55.80
3298;DHT22;1661;53.572;10.174;2024-03-06T10:06:58;12.30;56.90
3298;DHT22;1661;53.572;10.174;2024-03-06T10:09:26;12.20;57.40
3298;DHT22;1661;53.572;10.174;2024-03-06T10:11:53;12.30;58.00
3298;DHT22;1661;53.572;10.174;2024-03-06T10:14:22;12.30;57.60
3298;DHT22;1661;53.572;10.174;2024-03-06T10:16:57;12.40;58.50
3298;DHT22;1661;53.572;10.174;2024-03-06T10:19:25;12.70;58.60
3298;DHT22;1661;53.572;10.174;2024-03-06T10:21:53;13.00;56.10
3298;DHT22;1661;53.572;10.174;2024-03-06T10:24:23;13.10;55.80
3298;DHT22;1661;53.572;10.174;2024-03-06T10:26:50;13.00;55.40
3298;DHT22;1661;53.572;10.174;2024-03-06T10:29:20;13.00;55.90
3298;DHT22;1661;53.572;10.174;2024-03-06T10:31:55;12.90;55.80
3298;DHT22;1661;53.572;10.174;2024-03-06T10:34:23;12.70;56.00
3298;DHT22;1661;53.572;10.174;2024-03-06T10:36:54;12.60;56.50
3298;DHT22;1661;53.572;10.174;2024-03-06T10:39:22;12.40;57.30
3298;DHT22;1661;53.572;10.174;2024-03-06T10:41:52;12.50;58.70
3298;DHT22;1661;53.572;10.174;2024-03-06T10:44:21;12.60;57.20
3298;DHT22;1661;53.572;10.174;2024-03-06T10:46:55;12.70;58.00
3298;DHT22;1661;53.572;10.174;2024-03-06T10:49:25;12.90;58.30
3298;DHT22;1661;53.572;10.174;2024-03-06T10:51:54;13.30;61.90
3298;DHT22;1661;53.572;10.174;2024-03-06T10:54:26;13.50;57.50
3298;DHT22;1661;53.572;10.174;2024-03-06T10:56:54;13.80;56.80
3298;DHT22;1661;53.572;10.174;2024-03-06T10:59:24;13.90;56.80
3298;DHT22;1661;53.572;10.174;2024-03-06T11:01:53;14.00;57.00
3298;DHT22;1661;53.572;10.174;2024-03-06T11:04:21;14.30;55.60
3298;DHT22;1661;53.572;10.174;2024-03-06T11:06:49;14.40;52.00
3298;DHT22;1661;53.572;10.174;2024-03-06T11:09:16;14.50;52.00
3298;DHT22;1661;53.572;10.174;2024-03-06T11:11:52;14.60;51.50
3298;DHT22;1661;53.572;10.174;2024-03-06T11:14:23;14.60;53.90
3298;DHT22;1661;53.572;10.174;2024-03-06T11:17:02;14.70;53.90
3298;DHT22;1661;53.572;10.174;2024-03-06T11:19:29;14.90;51.50
3298;DHT22;1661;53.572;10.174;2024-03-06T11:21:56;15.00;50.20
3298;DHT22;1661;53.572;10.174;2024-03-06T11:24:24;15.00;50.50
3298;DHT22;1661;53.572;10.174;2024-03-06T11:27:00;15.00;50.70
3298;DHT22;1661;53.572;10.174;2024-03-06T11:29:28;15.10;50.60
3298;DHT22;1661;53.572;10.174;2024-03-06T11:32:09;15.10;50.10
3298;DHT22;1661;53.572;10.174;2024-03-06T11:34:37;15.10;51.50
3298;DHT22;1661;53.572;10.174;2024-03-06T11:37:05;15.20;50.20
3298;DHT22;1661;53.572;10.174;2024-03-06T11:39:36;15.10;50.20
3298;DHT22;1661;53.572;10.174;2024-03-06T11:42:04;14.90;52.30
3298;DHT22;1661;53.572;10.174;2024-03-06T11:44:34;14.80;51.70
3298;DHT22;1661;53.572;10.174;2024-03-06T11:47:02;14.70;53.20
3298;DHT22;1661;53.572;10.174;2024-03-06T11:49:30;14.50;52.30
3298;DHT22;1661;53.572;10.174;2024-03-06T11:52:00;14.40;54.70
3298;DHT22;1661;53.572;10.174;2024-03-06T11:54:28;14.30;55.20
3298;DHT22;1661;53.572;10.174;2024-03-06T11:56:56;14.10;55.30
3298;DHT22;1661;53.572;10.174;2024-03-06T11:59:26;14.00;59.50
3298;DHT22;1661;53.572;10.174;2024-03-06T12:01:53;13.90;58.70
3298;DHT22;1661;53.572;10.174;2024-03-06T12:04:21;13.80;58.10
3298;DHT22;1661;53.572;10.174;2024-03-06T12:06:50;13.70;59.10
3298;DHT22;1661;53.572;10.174;2024-03-06T12:09:17;13.70;56.00
3298;DHT22;1661;53.572;10.174;2024-03-06T12:11:44;13.50;56.40
3298;DHT22;1661;53.572;10.174;2024-03-06T12:14:14;13.50;57.80
3298;DHT22;1661;53.572;10.174;2024-03-06T12:16:44;13.40;58.40
3298;DHT22;1661;53.572;10.174;2024-03-06T12:19:11;13.40;58.60
3298;DHT22;1661;53.572;10.174;2024-03-06T12:21:39;13.30;54.40
3298;DHT22;1661;53.572;10.174;2024-03-06T12:24:07;13.30;56.00
3298;DHT22;1661;53.572;10.174;2024-03-06T12:26:35;13.20;55.80
3298;DHT22;1661;53.572;10.174;2024-03-06T12:29:06;13.20;56.90
3298;DHT22;1661;53.572;10.174;2024-03-06T12:31:34;13.20;58.30
3298;DHT22;1661;53.572;10.174;2024-03-06T12:34:03;13.20;59.10
3298;DHT22;1661;53.572;10.174;2024-03-06T12:36:30;13.10;58.50
3298;DHT22;1661;53.572;10.174;2024-03-06T12:39:00;13.10;59.50
3298;DHT22;1661;53.572;10.174;2024-03-06T12:41:27;13.00;55.10
3298;DHT22;1661;53.572;10.174;2024-03-06T12:43:55;13.00;58.70
3298;DHT22;1661;53.572;10.174;2024-03-06T12:46:22;13.10;58.40
3298;DHT22;1661;53.572;10.174;2024-03-06T12:48:50;13.10;60.90
3298;DHT22;1661;53.572;10.174;2024-03-06T12:51:18;13.10;58.40
3298;DHT22;1661;53.572;10.174;2024-03-06T12:53:45;13.10;57.50
3298;DHT22;1661;53.572;10.174;2024-03-06T12:56:13;13.10;58.80
3298;DHT22;1661;53.572;10.174;2024-03-06T12:58:40;13.10;55.10
3298;DHT22;1661;53.572;10.174;2024-03-06T13:01:07;13.00;55.50
3298;DHT22;1661;53.572;10.174;2024-03-06T13:03:33;12.90;57.30
3298;DHT22;1661;53.572;10.174;2024-03-06T13:06:00;12.90;57.60
3298;DHT22;1661;53.572;10.174;2024-03-06T13:08:28;12.90;58.00
3298;DHT22;1661;53.572;10.174;2024-03-06T13:10:55;13.00;57.10
3298;DHT22;1661;53.572;10.174;2024-03-06T13:13:22;13.00;59.20
3298;DHT22;1661;53.572;10.174;2024-03-06T13:15:50;13.00;57.80
3298;DHT22;1661;53.572;10.174;2024-03-06T13:18:17;12.90;57.00
3298;DHT22;1661;53.572;10.174;2024-03-06T13:20:44;13.00;59.30
3298;DHT22;1661;53.572;10.174;2024-03-06T13:23:11;13.00;59.20
3298;DHT22;1661;53.572;10.174;2024-03-06T13:25:40;13.00;57.70
3298;DHT22;1661;53.572;10.174;2024-03-06T13:28:07;13.00;57.40
3298;DHT22;1661;53.572;10.174;2024-03-06T13:30:35;13.00;57.80
3298;DHT22;1661;53.572;10.174;2024-03-06T13:33:03;12.90;62.00
3298;DHT22;1661;53.572;10.174;2024-03-06T13:35:30;12.90;60.50
3298;DHT22;1661;53.572;10.174;2024-03-06T13:37:57;12.80;59.50
3298;DHT22;1661;53.572;10.174;2024-03-06T13:40:24;12.80;57.00
3298;DHT22;1661;53.572;10.174;2024-03-06T13:42:53;12.80;58.80
3298;DHT22;1661;53.572;10.174;2024-03-06T13:45:20;12.70;58.30
3298;DHT22;1661;53.572;10.174;2024-03-06T13:47:47;12.70;59.70
3298;DHT22;1661;53.572;10.174;2024-03-06T13:50:15;12.70;60.40
3298;DHT22;1661;53.572;10.174;2024-03-06T13:52:42;12.70;59.80
3298;DHT22;1661;53.572;10.174;2024-03-06T13:55:09;12.80;60.20
3298;DHT22;1661;53.572;10.174;2024-03-06T13:57:38;12.80;60.60
3298;DHT22;1661;53.572;10.174;2024-03-06T14:00:08;12.80;57.70
3298;DHT22;1661;53.572;10.174;2024-03-06T14:02:42;12.80;59.70
3298;DHT22;1661;53.572;10.174;2024-03-06T14:05:09;13.00;58.60
3298;DHT22;1661;53.572;10.174;2024-03-06T14:07:38;13.10;58.20
3298;DHT22;1661;53.572;10.174;2024-03-06T14:10:07;13.20;56.70
3298;DHT22;1661;53.572;10.174;2024-03-06T14:12:34;13.30;56.90
3298;DHT22;1661;53.572;10.174;2024-03-06T14:15:03;13.30;55.50
3298;DHT22;1661;53.572;10.174;2024-03-06T14:17:32;13.30;54.20
3298;DHT22;1661;53.572;10.174;2024-03-06T14:19:58;13.10;54.10
3298;DHT22;1661;53.572;10.174;2024-03-06T14:22:25;12.80;57.10
3298;DHT22;1661;53.572;10.174;2024-03-06T14:24:53;13.00;56.40
3298;DHT22;1661;53.572;10.174;2024-03-06T14:27:20;13.30;56.40
3298;DHT22;1661;53.572;10.174;2024-03-06T14:29:46;13.50;55.60
3298;DHT22;1661;53.572;10.174;2024-03-06T14:32:14;13.70;54.80
3298;DHT22;1661;53.572;10.174;2024-03-06T14:34:42;14.00;55.30
3298;DHT22;1661;53.572;10.174;2024-03-06T14:37:10;14.20;54.40
3298;DHT22;1661;53.572;10.174;2024-03-06T14:39:37;14.40;53.30
3298;DHT22;1661;53.572;10.174;2024-03-06T14:42:06;14.60;52.90
3298;DHT22;1661;53.572;10.174;2024-03-06T14:44:32;14.70;51.70
3298;DHT22;1661;53.572;10.174;2024-03-06T14:46:59;14.90;51.70
3298;DHT22;1661;53.572;10.174;2024-03-06T14:49:26;15.00;51.20
3298;DHT22;1661;53.572;10.174;2024-03-06T14:51:54;15.10;51.30
3298;DHT22;1661;53.572;10.174;2024-03-06T14:54:22;15.20;52.00
3298;DHT22;1661;53.572;10.174;2024-03-06T14:56:51;15.20;51.80
3298;DHT22;1661;53.572;10.174;2024-03-06T14:59:18;15.20;53.20
3298;DHT22;1661;53.572;10.174;2024-03-06T15:01:44;15.10;50.90
3298;DHT22;1661;53.572;10.174;2024-03-06T15:04:12;14.90;50.50
3298;DHT22;1661;53.572;10.174;2024-03-06T15:06:39;14.70;51.20
3298;DHT22;1661;53.572;10.174;2024-03-06T15:09:07;14.60;52.60
3298;DHT22;1661;53.572;10.174;2024-03-06T15:11:37;14.50;53.00
3298;DHT22;1661;53.572;10.174;2024-03-06T15:14:04;14.30;51.80
3298;DHT22;1661;53.572;10.174;2024-03-06T15:16:33;14.20;56.40
3298;DHT22;1661;53.572;10.174;2024-03-06T15:19:00;14.20;53.80
3298;DHT22;1661;53.572;10.174;2024-03-06T15:21:28;14.20;53.90
3298;DHT22;1661;53.572;10.174;2024-03-06T15:23:55;14.10;55.30
3298;DHT22;1661;53.572;10.174;2024-03-06T15:26:24;14.20;53.80
3298;DHT22;1661;53.572;10.174;2024-03-06T15:28:50;14.20;56.30
3298;DHT22;1661;53.572;10.174;2024-03-06T15:31:18;14.10;54.10
3298;DHT22;1661;53.572;10.174;2024-03-06T15:33:45;14.10;54.40
3298;DHT22;1661;53.572;10.174;2024-03-06T15:36:12;14.00;53.30
3298;DHT22;1661;53.572;10.174;2024-03-06T15:38:39;13.90;53.90
3298;DHT22;1661;53.572;10.174;2024-03-06T15:41:06;13.80;56.60
3298;DHT22;1661;53.572;10.174;2024-03-06T15:43:35;13.60;56.90
3298;DHT22;1661;53.572;10.174;2024-03-06T15:46:02;13.50;58.60
3298;DHT22;1661;53.572;10.174;2024-03-06T15:48:29;13.50;62.40
3298;DHT22;1661;53.572;10.174;2024-03-06T15:50:58;13.40;59.00
3298;DHT22;1661;53.572;10.174;2024-03-06T15:53:25;13.30;59.00
3298;DHT22;1661;53.572;10.174;2024-03-06T15:55:53;13.20;59.10
3298;DHT22;1661;53.572;10.174;2024-03-06T15:58:21;13.20;57.80